Terminal Aerodrome Forecast
Issued by NWS

Home | Current Version | Previous Version | Text Only | Print | Product List | Glossary On
Versions: 1 2 3 4 5 6 7 8 9 10 11 12 13 14 15 16 17 18
000
FTAK31 PAJN 030500
TAFAJN
TAF
PAJN 030530Z 0306/0406 VRB04KT P6SM SCT050 SCT080
     FM030800 00000KT 6SM BCFG FEW004 SCT010 SCT150
     FM031800 24006KT P6SM SCT150=

USA.gov is the U.S. government's official web portal to all federal, state and local government web resources and services.